Weather at Pista do Cabo Sardão [CLOSED]

Public forecast

Using degrees Celsius for public forecast. Weather courtesy of forecast.io.

Closest aviation weather report (METAR) to Pista do Cabo Sardão

Closest report is Beja Airport / Airbase, 47.7 nm (88.3 km) NE.

2024/07/25 09:27 (retrieved 25 minutes ago)

LPBJ 250927Z 30007KT 270V330 8000 FEW008 BKN015 20/17 Q1014

Closest aviation forecast (TAF) to Pista do Cabo Sardão

Closest forecast is Beja Airport / Airbase, 47.7 nm (88.3 km) NE.

2024/07/25 06:18 (retrieved 4 hours ago)

TAF LPBJ 250508Z 2506/2606 27008KT 4000 BCFG BKN005 PROB30 2506/2508 0800 FG BKN002 BECMG 2507/2510 9999 NSW SCT010 BECMG 2511/2514 33010KT CAVOK BECMG 2523/2601 30005KT